Time;durP1;ratioP1;P1;durP2;ratioP2;P2;SDS_P1;SDS_P2;PMS_P1;PMS_P2;Temp;Humidity;BMP_temperature;BMP_pressure;BME280_temperature;BME280_humidity;BME280_pressure;Samples;Min_cycle;Max_cycle;Signal;HPM_P1;HPM_P2
2022/11/16 00:02:19;;;;;;;17.07;14.57;;;;;;;-148.82;100.00;60434.72;4953985;28;20622;-70
2022/11/16 00:04:47;;;;;;;15.87;14.23;;;;;;;-148.82;100.00;60434.72;5010208;28;20199;-69
2022/11/16 00:07:15;;;;;;;16.30;14.40;;;;;;;-148.82;100.00;60434.72;5009655;28;21284;-69
2022/11/16 00:09:44;;;;;;;16.07;14.27;;;;;;;-148.82;100.00;60434.72;4984931;28;20739;-69
2022/11/16 00:12:13;;;;;;;15.53;13.20;;;;;;;-148.82;100.00;60434.72;4986895;28;20203;-69
2022/11/16 00:14:41;;;;;;;15.33;13.70;;;;;;;-148.82;100.00;60434.72;5010316;28;21458;-70
2022/11/16 00:17:09;;;;;;;16.87;13.77;;;;;;;-148.82;100.00;60434.72;4982768;28;20223;-69
2022/11/16 00:19:37;;;;;;;16.13;14.47;;;;;;;-148.82;100.00;60434.72;4964806;28;20218;-69
2022/11/16 00:22:05;;;;;;;17.13;13.77;;;;;;;-148.82;100.00;60434.72;5006784;28;20389;-69
2022/11/16 00:24:33;;;;;;;15.47;13.97;;;;;;;-148.82;100.00;60434.72;4983625;28;20216;-70
2022/11/16 00:27:03;;;;;;;14.67;13.07;;;;;;;-148.82;100.00;60434.72;4983664;28;20547;-71
2022/11/16 00:29:31;;;;;;;15.87;14.20;;;;;;;-148.82;100.00;60434.72;5011071;28;20378;-69
2022/11/16 00:32:00;;;;;;;14.20;12.83;;;;;;;-148.82;100.00;60434.72;4987294;28;20590;-70
2022/11/16 00:34:28;;;;;;;15.20;13.57;;;;;;;-148.82;100.00;60434.72;4964996;28;20584;-70
2022/11/16 00:36:56;;;;;;;17.37;14.87;;;;;;;-148.82;100.00;60434.72;5006298;28;20725;-69
2022/11/16 00:39:24;;;;;;;14.90;13.40;;;;;;;-148.82;100.00;60434.72;4982642;28;20203;-69
2022/11/16 00:41:53;;;;;;;15.70;14.03;;;;;;;-148.82;100.00;60434.72;4996858;28;20876;-69
2022/11/16 00:44:22;;;;;;;14.83;13.17;;;;;;;-148.82;100.00;60434.72;5000536;28;20276;-70
2022/11/16 00:46:51;;;;;;;15.37;13.00;;;;;;;-148.82;100.00;60434.72;4999642;28;20288;-69
2022/11/16 00:49:19;;;;;;;14.00;12.60;;;;;;;-148.82;100.00;60434.72;4955141;28;20211;-70
2022/11/16 00:51:50;;;;;;;14.83;13.10;;;;;;;-148.82;100.00;60434.72;4955924;28;20610;-69
2022/11/16 00:54:18;;;;;;;15.37;12.50;;;;;;;-148.82;100.00;60434.72;4982845;28;20765;-70
2022/11/16 00:56:46;;;;;;;14.43;13.00;;;;;;;-148.82;100.00;60434.72;5009577;28;20231;-70
2022/11/16 00:59:14;;;;;;;13.60;12.07;;;;;;;-148.82;100.00;60434.72;4975841;28;20456;-68
2022/11/16 01:01:44;;;;;;;12.57;11.37;;;;;;;-148.82;100.00;60434.72;5010050;28;20223;-69
2022/11/16 01:04:12;;;;;;;12.77;11.67;;;;;;;-148.82;100.00;60434.72;4988444;28;20211;-70
2022/11/16 01:06:40;;;;;;;13.63;12.20;;;;;;;-148.82;100.00;60434.72;5007573;28;20203;-72
2022/11/16 01:09:08;;;;;;;13.63;12.23;;;;;;;-148.82;100.00;60434.72;4963679;28;20876;-70
2022/11/16 01:14:23;;;;;;;12.23;11.00;;;;;;;-148.82;100.00;60434.72;4980797;28;20436;-71
2022/11/16 01:16:52;;;;;;;11.90;10.80;;;;;;;-148.82;100.00;60434.72;5010186;28;20223;-72
2022/11/16 01:19:21;;;;;;;12.47;11.30;;;;;;;-148.82;100.00;60434.72;4983753;28;20215;-68
2022/11/16 01:21:49;;;;;;;12.40;11.30;;;;;;;-148.82;100.00;60434.72;5008033;28;20317;-71
2022/11/16 01:24:17;;;;;;;12.73;11.43;;;;;;;-148.82;100.00;60434.72;4957746;28;20211;-71
2022/11/16 01:26:46;;;;;;;12.63;11.27;;;;;;;-148.82;100.00;60434.72;5004866;28;20218;-71
2022/11/16 01:29:14;;;;;;;12.53;11.33;;;;;;;-148.82;100.00;60434.72;4986240;28;20790;-72
2022/11/16 01:31:42;;;;;;;12.27;11.07;;;;;;;-148.82;100.00;60434.72;5009300;28;20624;-70
2022/11/16 01:34:12;;;;;;;12.83;11.47;;;;;;;-148.82;100.00;60434.72;5007726;28;20681;-69
2022/11/16 01:36:40;;;;;;;12.43;11.00;;;;;;;-148.82;100.00;60434.72;4983830;28;20219;-71
2022/11/16 01:39:09;;;;;;;11.93;10.77;;;;;;;-148.82;100.00;60434.72;4960634;28;21116;-70
2022/11/16 01:45:04;;;;;;;14.07;12.77;;;;;;;-148.82;100.00;60434.72;4984544;28;20792;-71
2022/11/16 01:47:33;;;;;;;13.50;12.07;;;;;;;-148.82;100.00;60434.72;5010158;28;20441;-72
2022/11/16 01:50:08;;;;;;;13.50;12.03;;;;;;;-148.82;100.00;60434.72;5005221;28;20234;-72
2022/11/16 01:52:46;;;;;;;11.60;10.50;;;;;;;-148.82;100.00;60434.72;4983331;28;21210;-72
2022/11/16 01:55:15;;;;;;;12.53;11.20;;;;;;;-148.82;100.00;60434.72;4967144;28;22220;-72
2022/11/16 01:57:44;;;;;;;10.87;9.93;;;;;;;-148.82;100.00;60434.72;5006231;28;20511;-71
2022/11/16 02:00:14;;;;;;;11.80;10.60;;;;;;;-148.82;100.00;60434.72;4984286;28;20948;-72
2022/11/16 02:02:43;;;;;;;13.10;11.90;;;;;;;-148.82;100.00;60434.72;5005018;28;20200;-71
2022/11/16 02:05:17;;;;;;;11.93;10.93;;;;;;;-148.82;100.00;60434.72;5008041;28;20214;-70
2022/11/16 02:10:51;;;;;;;12.53;11.23;;;;;;;-148.82;100.00;60434.72;4961379;28;20511;-72
2022/11/16 02:13:30;;;;;;;12.57;11.27;;;;;;;-148.82;100.00;60434.72;5005396;28;20663;-70
2022/11/16 02:16:03;;;;;;;12.27;11.07;;;;;;;-148.82;100.00;60434.72;4985147;28;20358;-70
2022/11/16 02:18:35;;;;;;;15.07;11.53;;;;;;;-148.82;100.00;60434.72;5005944;28;20227;-70
2022/11/16 02:21:13;;;;;;;12.63;11.13;;;;;;;-148.82;100.00;60434.72;4983964;28;20847;-69
2022/11/16 02:24:06;;;;;;;13.03;11.63;;;;;;;-148.82;100.00;60434.72;4980426;28;20402;-70
2022/11/16 02:27:14;;;;;;;12.30;11.00;;;;;;;-148.82;100.00;60434.72;4961566;28;20687;-72
2022/11/16 02:29:46;;;;;;;12.17;10.87;;;;;;;-148.82;100.00;60434.72;4989855;28;20656;-71
2022/11/16 02:32:17;;;;;;;12.33;11.20;;;;;;;-148.82;100.00;60434.72;4986857;28;20920;-71
2022/11/16 02:34:50;;;;;;;13.63;12.23;;;;;;;-148.82;100.00;60434.72;5007090;28;20881;-72
2022/11/16 02:37:21;;;;;;;11.47;10.37;;;;;;;-148.82;100.00;60434.72;5002332;28;20919;-69
2022/11/16 02:39:58;;;;;;;11.97;10.83;;;;;;;-148.82;100.00;60434.72;4998183;28;20443;-71
2022/11/16 02:42:30;;;;;;;13.40;12.03;;;;;;;-148.82;100.00;60434.72;4959281;28;20210;-71
2022/11/16 02:45:00;;;;;;;12.20;10.90;;;;;;;-148.82;100.00;60434.72;5007682;28;20304;-71
2022/11/16 02:47:31;;;;;;;11.93;10.67;;;;;;;-148.82;100.00;60434.72;4984728;28;20210;-70
2022/11/16 02:50:03;;;;;;;11.97;10.87;;;;;;;-148.82;100.00;60434.72;5008563;28;20226;-70
2022/11/16 02:52:32;;;;;;;10.70;9.70;;;;;;;-148.82;100.00;60434.72;5008688;28;20208;-70
2022/11/16 02:55:00;;;;;;;12.20;10.90;;;;;;;-148.82;100.00;60434.72;4983224;28;21458;-70
2022/11/16 02:57:42;;;;;;;14.10;11.50;;;;;;;-148.82;100.00;60434.72;4961148;28;20233;-69
2022/11/16 03:00:17;;;;;;;11.97;10.73;;;;;;;-148.82;100.00;60434.72;4965888;28;20702;-69
2022/11/16 03:02:51;;;;;;;11.70;10.50;;;;;;;-148.82;100.00;60434.72;4994498;28;20207;-69
2022/11/16 03:05:30;;;;;;;12.00;10.73;;;;;;;-148.82;100.00;60434.72;4985556;28;20225;-70
2022/11/16 03:08:07;;;;;;;11.90;10.77;;;;;;;-148.82;100.00;60434.72;4985444;28;20994;-70
2022/11/16 03:13:25;;;;;;;10.90;9.90;;;;;;;-148.82;100.00;60434.72;4972696;28;20784;-69
2022/11/16 03:15:56;;;;;;;12.93;11.63;;;;;;;-148.82;100.00;60434.72;5010263;28;20198;-71
2022/11/16 03:18:26;;;;;;;12.87;11.43;;;;;;;-148.82;100.00;60434.72;5013842;28;20883;-70
2022/11/16 03:21:06;;;;;;;13.63;11.80;;;;;;;-148.82;100.00;60434.72;4992687;28;20222;-71
2022/11/16 03:23:34;;;;;;;11.87;10.77;;;;;;;-148.82;100.00;60434.72;4993617;28;20211;-71
2022/11/16 03:26:05;;;;;;;12.33;11.13;;;;;;;-148.82;100.00;60434.72;5011843;28;20203;-71
2022/11/16 03:28:36;;;;;;;10.87;9.60;;;;;;;-148.82;100.00;60434.72;5012464;28;20222;-70
2022/11/16 03:31:08;;;;;;;12.77;11.57;;;;;;;-148.82;100.00;60434.72;4972957;28;20239;-72
2022/11/16 03:33:40;;;;;;;11.23;10.13;;;;;;;-148.82;100.00;60434.72;5011365;28;20202;-70
2022/11/16 03:36:11;;;;;;;11.67;10.57;;;;;;;-148.82;100.00;60434.72;4986239;28;21918;-71
2022/11/16 03:38:41;;;;;;;12.83;11.63;;;;;;;-148.82;100.00;60434.72;4982640;28;20394;-70
2022/11/16 03:41:10;;;;;;;12.67;11.37;;;;;;;-148.82;100.00;60434.72;5010468;28;20338;-70
2022/11/16 03:43:39;;;;;;;12.97;11.57;;;;;;;-148.82;100.00;60434.72;4999446;28;20202;-69
2022/11/16 03:46:09;;;;;;;13.27;11.77;;;;;;;-148.82;100.00;60434.72;4980993;28;20495;-72
2022/11/16 03:48:39;;;;;;;14.33;11.80;;;;;;;-148.82;100.00;60434.72;5011505;28;20206;-70
2022/11/16 03:51:09;;;;;;;13.77;12.47;;;;;;;-148.82;100.00;60434.72;4989652;28;20227;-71
2022/11/16 03:53:38;;;;;;;12.93;11.63;;;;;;;-148.82;100.00;60434.72;4986533;28;20466;-70
2022/11/16 03:56:07;;;;;;;12.67;11.43;;;;;;;-148.82;100.00;60434.72;5010067;28;20226;-70
2022/11/16 03:58:35;;;;;;;13.97;12.40;;;;;;;-148.82;100.00;60434.72;5003753;28;20223;-69
2022/11/16 04:01:05;;;;;;;13.90;12.47;;;;;;;-148.82;100.00;60434.72;4967214;28;20457;-69
2022/11/16 04:03:35;;;;;;;13.43;12.03;;;;;;;-148.82;100.00;60434.72;5008914;28;20203;-70
2022/11/16 04:25:40;;;;;;;16.40;14.57;;;;;;;-148.82;100.00;60434.72;4979190;28;20665;-69
2022/11/16 04:28:13;;;;;;;14.47;13.07;;;;;;;-148.82;100.00;60434.72;5010020;28;20203;-69
2022/11/16 04:39:02;;;;;;;12.97;11.43;;;;;;;-148.82;100.00;60434.72;4964214;28;20235;-70
2022/11/16 04:44:17;;;;;;;14.03;12.60;;;;;;;-148.82;100.00;60434.72;5008721;28;20296;-72
2022/11/16 04:49:31;;;;;;;13.47;12.13;;;;;;;-148.82;100.00;60434.72;5005863;28;20213;-70
2022/11/16 04:52:01;;;;;;;13.97;12.53;;;;;;;-148.82;100.00;60434.72;5009571;28;20544;-70
2022/11/16 04:54:29;;;;;;;13.00;11.60;;;;;;;-148.82;100.00;60434.72;4979648;28;20214;-71
2022/11/16 04:56:57;;;;;;;13.23;11.77;;;;;;;-148.82;100.00;60434.72;5009365;28;20198;-69
2022/11/16 04:59:25;;;;;;;14.00;12.23;;;;;;;-148.82;100.00;60434.72;5006916;28;20218;-70
2022/11/16 05:02:08;;;;;;;12.60;11.30;;;;;;;-148.82;100.00;60434.72;4958460;28;21082;-70
2022/11/16 05:04:37;;;;;;;13.00;11.70;;;;;;;-148.82;100.00;60434.72;4975146;28;20206;-69
2022/11/16 05:07:09;;;;;;;12.73;11.20;;;;;;;-148.82;100.00;60434.72;4991679;28;21467;-69
2022/11/16 05:09:41;;;;;;;14.83;10.83;;;;;;;-148.82;100.00;60434.72;4995508;28;20312;-68
2022/11/16 05:12:10;;;;;;;12.63;11.33;;;;;;;-148.82;100.00;60434.72;5009762;28;20808;-68
2022/11/16 05:14:38;;;;;;;12.70;11.40;;;;;;;-148.82;100.00;60434.72;4980665;28;20214;-71
2022/11/16 05:17:07;;;;;;;11.77;10.53;;;;;;;-148.82;100.00;60434.72;5008152;28;20203;-69
2022/11/16 05:22:22;;;;;;;12.27;10.53;;;;;;;-148.82;100.00;60434.72;4921066;28;20823;-69
2022/11/16 05:24:50;;;;;;;11.90;10.80;;;;;;;-148.82;100.00;60434.72;5009882;28;20222;-70
2022/11/16 05:27:20;;;;;;;11.17;10.10;;;;;;;-148.82;100.00;60434.72;4986284;28;21432;-69
2022/11/16 05:29:49;;;;;;;11.63;10.43;;;;;;;-148.82;100.00;60434.72;4987770;28;20223;-69
2022/11/16 05:32:17;;;;;;;13.93;12.17;;;;;;;-148.82;100.00;60434.72;5008083;28;20207;-70
2022/11/16 05:34:46;;;;;;;12.00;10.80;;;;;;;-148.82;100.00;60434.72;5010774;28;20287;-71
2022/11/16 05:37:14;;;;;;;12.40;11.20;;;;;;;-148.82;100.00;60434.72;4965297;28;20887;-69
2022/11/16 05:39:44;;;;;;;12.33;10.97;;;;;;;-148.82;100.00;60434.72;5009683;28;20230;-71
2022/11/16 05:42:12;;;;;;;12.63;11.23;;;;;;;-148.82;100.00;60434.72;4989854;28;20930;-70
2022/11/16 05:44:40;;;;;;;12.67;11.23;;;;;;;-148.82;100.00;60434.72;4988046;28;20219;-71
2022/11/16 05:47:08;;;;;;;14.00;11.67;;;;;;;-148.82;100.00;60434.72;5008264;28;20312;-70
2022/11/16 05:49:37;;;;;;;12.47;11.17;;;;;;;-148.82;100.00;60434.72;5011123;28;20195;-70
2022/11/16 05:52:05;;;;;;;14.03;11.53;;;;;;;-148.82;100.00;60434.72;4968756;28;20758;-69
2022/11/16 05:54:33;;;;;;;11.87;10.70;;;;;;;-148.82;100.00;60434.72;5009885;28;20762;-69
2022/11/16 05:57:03;;;;;;;12.27;10.93;;;;;;;-148.82;100.00;60434.72;4986620;28;20339;-68
2022/11/16 05:59:31;;;;;;;12.70;11.47;;;;;;;-148.82;100.00;60434.72;5008360;28;20230;-69
2022/11/16 06:01:59;;;;;;;12.93;11.23;;;;;;;-148.82;100.00;60434.72;4982796;28;20218;-68
2022/11/16 06:04:27;;;;;;;15.03;13.47;;;;;;;-148.82;100.00;60434.72;5007529;28;20218;-68
2022/11/16 06:06:56;;;;;;;12.87;11.27;;;;;;;-148.82;100.00;60434.72;5006580;28;20772;-68
2022/11/16 06:09:24;;;;;;;13.40;11.30;;;;;;;-148.82;100.00;60434.72;4957646;28;21045;-69
2022/11/16 06:11:52;;;;;;;11.90;10.77;;;;;;;-148.82;100.00;60434.72;5004673;28;21074;-69
2022/11/16 06:14:22;;;;;;;12.17;10.87;;;;;;;-148.82;100.00;60434.72;4982311;28;20206;-69
2022/11/16 06:16:50;;;;;;;12.73;11.43;;;;;;;-148.82;100.00;60434.72;4958235;28;20207;-70
2022/11/16 06:19:18;;;;;;;12.77;11.53;;;;;;;-148.82;100.00;60434.72;4990499;28;20222;-70
2022/11/16 06:21:46;;;;;;;13.57;12.20;;;;;;;-148.82;100.00;60434.72;4980963;28;20234;-69
2022/11/16 06:24:15;;;;;;;12.13;10.83;;;;;;;-148.82;100.00;60434.72;4956492;28;20591;-70
2022/11/16 06:26:44;;;;;;;11.67;10.40;;;;;;;-148.82;100.00;60434.72;5004495;28;20587;-69
2022/11/16 06:29:13;;;;;;;12.47;11.13;;;;;;;-148.82;100.00;60434.72;4985903;28;20739;-70
2022/11/16 06:31:42;;;;;;;11.63;10.47;;;;;;;-148.82;100.00;60434.72;4977659;28;20954;-70
2022/11/16 06:34:10;;;;;;;10.50;9.50;;;;;;;-148.82;100.00;60434.72;4983993;28;20643;-71
2022/11/16 06:36:39;;;;;;;10.13;9.13;;;;;;;-148.82;100.00;60434.72;4976101;28;20575;-70
2022/11/16 06:39:07;;;;;;;9.90;8.97;;;;;;;-148.82;100.00;60434.72;5008838;28;20288;-71
2022/11/16 06:41:37;;;;;;;11.50;10.33;;;;;;;-148.82;100.00;60434.72;4962932;28;20531;-70
2022/11/16 06:44:08;;;;;;;10.53;9.53;;;;;;;-148.82;100.00;60434.72;5008100;28;20210;-69
2022/11/16 06:46:37;;;;;;;10.30;8.80;;;;;;;-148.82;100.00;60434.72;4982379;28;20511;-70
2022/11/16 06:49:06;;;;;;;11.00;9.93;;;;;;;-148.82;100.00;60434.72;4954521;28;20717;-71
2022/11/16 06:51:34;;;;;;;10.13;9.17;;;;;;;-148.82;100.00;60434.72;5004315;28;20227;-70
2022/11/16 06:54:02;;;;;;;10.50;9.43;;;;;;;-148.82;100.00;60434.72;4980019;28;20435;-71
2022/11/16 06:56:31;;;;;;;9.40;8.43;;;;;;;-148.82;100.00;60434.72;4953568;28;20223;-71
2022/11/16 06:58:59;;;;;;;10.13;9.13;;;;;;;-148.82;100.00;60434.72;5006450;28;20208;-72
2022/11/16 07:01:27;;;;;;;10.97;9.87;;;;;;;-148.82;100.00;60434.72;4982703;28;20871;-72
2022/11/16 07:03:56;;;;;;;10.33;9.40;;;;;;;-148.82;100.00;60434.72;4983150;28;21092;-71
2022/11/16 07:06:26;;;;;;;9.70;8.83;;;;;;;-148.82;100.00;60434.72;4976466;28;20793;-71
2022/11/16 07:08:54;;;;;;;9.73;8.83;;;;;;;-148.82;100.00;60434.72;4988160;28;20210;-71
2022/11/16 07:11:22;;;;;;;9.90;8.77;;;;;;;-148.82;100.00;60434.72;4953004;28;20229;-69
2022/11/16 07:13:50;;;;;;;9.90;8.90;;;;;;;-148.82;100.00;60434.72;4980530;28;20404;-71
2022/11/16 07:16:18;;;;;;;9.13;8.33;;;;;;;-148.82;100.00;60434.72;5007316;28;20470;-71
2022/11/16 07:18:47;;;;;;;8.90;8.20;;;;;;;-148.82;100.00;60434.72;4983727;28;20356;-70
2022/11/16 07:21:16;;;;;;;10.03;9.13;;;;;;;-148.82;100.00;60434.72;5007140;28;20234;-71
2022/11/16 07:23:46;;;;;;;9.07;8.23;;;;;;;-148.82;100.00;60434.72;5003876;28;20682;-70
2022/11/16 07:26:14;;;;;;;11.67;8.30;;;;;;;-148.82;100.00;60434.72;4958932;28;20417;-72
2022/11/16 07:28:42;;;;;;;9.07;8.30;;;;;;;-148.82;100.00;60434.72;5005774;28;20573;-70
2022/11/16 07:31:15;;;;;;;9.60;8.67;;;;;;;-148.82;100.00;60434.72;5007666;28;20712;-70
2022/11/16 07:33:44;;;;;;;10.27;8.60;;;;;;;-148.82;100.00;60434.72;4984455;28;22291;-71
2022/11/16 07:36:13;;;;;;;9.83;8.83;;;;;;;-148.82;100.00;60434.72;5006873;28;20203;-68
2022/11/16 07:38:42;;;;;;;10.37;9.30;;;;;;;-148.82;100.00;60434.72;5007554;28;20343;-69
2022/11/16 07:41:12;;;;;;;9.30;8.23;;;;;;;-148.82;100.00;60434.72;4963317;28;20978;-69
2022/11/16 07:43:41;;;;;;;10.33;9.17;;;;;;;-148.82;100.00;60434.72;5006980;28;20393;-70
2022/11/16 07:46:12;;;;;;;10.00;8.93;;;;;;;-148.82;100.00;60434.72;5007506;28;20204;-71
2022/11/16 07:49:00;;;;;;;9.40;8.50;;;;;;;-148.82;100.00;60434.72;4985442;28;21087;-70
2022/11/16 07:51:28;;;;;;;8.83;8.03;;;;;;;-148.82;100.00;60434.72;5008537;28;20721;-69
2022/11/16 07:53:56;;;;;;;9.43;8.63;;;;;;;-148.82;100.00;60434.72;5006297;28;20202;-71
2022/11/16 07:56:26;;;;;;;9.83;8.93;;;;;;;-148.82;100.00;60434.72;5012257;28;20498;-70
2022/11/16 07:58:54;;;;;;;8.93;8.07;;;;;;;-148.82;100.00;60434.72;4963297;28;20618;-69
2022/11/16 08:01:22;;;;;;;9.03;8.23;;;;;;;-148.82;100.00;60434.72;5011058;28;20269;-70
2022/11/16 08:03:53;;;;;;;8.90;8.20;;;;;;;-148.82;100.00;60434.72;4990317;28;20211;-69
2022/11/16 08:06:24;;;;;;;9.43;8.50;;;;;;;-148.82;100.00;60434.72;5011306;28;20615;-71
2022/11/16 08:08:52;;;;;;;11.30;10.30;;;;;;;-148.82;100.00;60434.72;5008594;28;20612;-69
2022/11/16 08:11:27;;;;;;;10.90;9.90;;;;;;;-148.82;100.00;60434.72;5010353;28;20227;-69
2022/11/16 08:13:55;;;;;;;10.03;9.00;;;;;;;-148.82;100.00;60434.72;4954323;28;20420;-69
2022/11/16 08:16:23;;;;;;;10.03;9.13;;;;;;;-148.82;100.00;60434.72;5011347;28;20594;-68
2022/11/16 08:18:52;;;;;;;8.93;8.13;;;;;;;-148.82;100.00;60434.72;4985890;28;20836;-69
2022/11/16 08:21:20;;;;;;;10.20;9.13;;;;;;;-148.82;100.00;60434.72;5011536;28;20602;-68
2022/11/16 08:23:48;;;;;;;11.50;10.03;;;;;;;-148.82;100.00;60434.72;5007322;28;20223;-68
2022/11/16 08:26:23;;;;;;;12.17;11.03;;;;;;;-148.82;100.00;60434.72;5011544;28;20779;-72
2022/11/16 08:28:55;;;;;;;18.83;16.87;;;;;;;-148.82;100.00;60434.72;4961397;28;20245;-69
2022/11/16 08:31:25;;;;;;;11.97;10.57;;;;;;;-148.82;100.00;60434.72;5009559;28;20250;-72
2022/11/16 08:33:53;;;;;;;9.63;8.70;;;;;;;-148.82;100.00;60434.72;5008465;28;20991;-72
2022/11/16 08:36:21;;;;;;;8.90;8.00;;;;;;;-148.82;100.00;60434.72;4987733;28;20215;-70
2022/11/16 08:38:50;;;;;;;9.67;8.87;;;;;;;-148.82;100.00;60434.72;5008558;28;20598;-71
2022/11/16 08:41:19;;;;;;;10.00;9.10;;;;;;;-148.82;100.00;60434.72;5010168;28;20231;-72
2022/11/16 08:43:49;;;;;;;9.83;8.97;;;;;;;-148.82;100.00;60434.72;4958462;28;20211;-68
2022/11/16 08:46:19;;;;;;;9.73;8.83;;;;;;;-148.82;100.00;60434.72;5011189;28;20494;-70
2022/11/16 08:48:48;;;;;;;10.33;9.37;;;;;;;-148.82;100.00;60434.72;5007921;28;21504;-71
2022/11/16 08:51:18;;;;;;;9.90;8.97;;;;;;;-148.82;100.00;60434.72;4989169;28;20235;-68
2022/11/16 08:53:48;;;;;;;9.77;8.97;;;;;;;-148.82;100.00;60434.72;5007389;28;22044;-70
2022/11/16 08:56:17;;;;;;;10.17;9.27;;;;;;;-148.82;100.00;60434.72;5009858;28;20292;-71
2022/11/16 08:58:46;;;;;;;15.20;13.70;;;;;;;-148.82;100.00;60434.72;4971780;28;20207;-69
2022/11/16 09:01:23;;;;;;;11.23;10.23;;;;;;;-148.82;100.00;60434.72;5005654;28;20234;-69
2022/11/16 09:03:53;;;;;;;9.40;8.60;;;;;;;-148.82;100.00;60434.72;5009020;28;20230;-68
2022/11/16 09:06:22;;;;;;;10.23;9.33;;;;;;;-148.82;100.00;60434.72;5009851;28;20950;-69
2022/11/16 09:08:50;;;;;;;10.07;9.17;;;;;;;-148.82;100.00;60434.72;4984010;28;20324;-68
2022/11/16 09:11:20;;;;;;;9.90;8.93;;;;;;;-148.82;100.00;60434.72;5008340;28;20564;-70
2022/11/16 09:13:50;;;;;;;9.30;8.20;;;;;;;-148.82;100.00;60434.72;5005851;28;20213;-67
2022/11/16 09:16:19;;;;;;;9.50;8.70;;;;;;;-148.82;100.00;60434.72;4962623;28;20559;-69
2022/11/16 09:18:50;;;;;;;10.67;9.67;;;;;;;-148.82;100.00;60434.72;4953842;28;20226;-70
2022/11/16 09:21:19;;;;;;;10.83;9.80;;;;;;;-148.82;100.00;60434.72;4978260;28;20975;-69
2022/11/16 09:23:48;;;;;;;12.80;11.70;;;;;;;-148.82;100.00;60434.72;5009330;28;20698;-71
2022/11/16 09:26:19;;;;;;;12.07;10.80;;;;;;;-148.82;100.00;60434.72;4979333;28;20510;-71
2022/11/16 09:28:48;;;;;;;10.47;9.43;;;;;;;-148.82;100.00;60434.72;5010168;28;20223;-69
2022/11/16 09:31:16;;;;;;;10.57;9.67;;;;;;;-148.82;100.00;60434.72;5006942;28;20435;-69
2022/11/16 09:33:52;;;;;;;10.27;9.37;;;;;;;-148.82;100.00;60434.72;5002466;28;20657;-68
2022/11/16 09:36:21;;;;;;;10.80;9.80;;;;;;;-148.82;100.00;60434.72;4979488;28;20519;-71
2022/11/16 09:38:49;;;;;;;10.13;9.17;;;;;;;-148.82;100.00;60434.72;5011482;28;20203;-71
2022/11/16 09:41:47;;;;;;;10.87;9.87;;;;;;;-148.82;100.00;60434.72;4990281;28;20427;-71
2022/11/16 09:44:33;;;;;;;10.27;9.27;;;;;;;-148.82;100.00;60434.72;5010744;28;20779;-71
2022/11/16 09:47:02;;;;;;;10.47;9.43;;;;;;;-148.82;100.00;60434.72;5012362;28;20218;-69
2022/11/16 09:49:35;;;;;;;25.00;20.33;;;;;;;-148.82;100.00;60434.72;4968637;28;20261;-69
2022/11/16 09:52:06;;;;;;;11.20;9.93;;;;;;;-148.82;100.00;60434.72;5011719;28;20203;-68
2022/11/16 09:54:35;;;;;;;10.23;9.27;;;;;;;-148.82;100.00;60434.72;5014080;28;20293;-69
2022/11/16 09:57:08;;;;;;;9.60;8.63;;;;;;;-148.82;100.00;60434.72;4993987;28;20203;-68
2022/11/16 09:59:42;;;;;;;10.20;9.10;;;;;;;-148.82;100.00;60434.72;5014186;28;20217;-69
2022/11/16 10:02:18;;;;;;;10.90;9.80;;;;;;;-148.82;100.00;60434.72;5009734;28;20253;-70
2022/11/16 10:04:51;;;;;;;8.63;7.87;;;;;;;-148.82;100.00;60434.72;5013927;28;20362;-70
2022/11/16 10:07:28;;;;;;;9.33;8.53;;;;;;;-148.82;100.00;60434.72;4991896;28;20392;-69
2022/11/16 10:09:57;;;;;;;10.77;9.77;;;;;;;-148.82;100.00;60434.72;4981754;28;20230;-69
2022/11/16 10:12:29;;;;;;;8.37;7.57;;;;;;;-148.82;100.00;60434.72;4991355;28;21802;-68
2022/11/16 10:15:14;;;;;;;8.93;8.03;;;;;;;-148.82;100.00;60434.72;5013205;28;21023;-68
2022/11/16 10:18:05;;;;;;;8.33;7.53;;;;;;;-148.82;100.00;60434.72;5012746;28;20203;-72
2022/11/16 10:20:59;;;;;;;7.50;6.93;;;;;;;-148.82;100.00;60434.72;4973951;28;21094;-71
2022/11/16 10:23:35;;;;;;;8.63;7.80;;;;;;;-148.82;100.00;60434.72;5010250;28;20966;-68
2022/11/16 10:26:09;;;;;;;7.70;7.00;;;;;;;-148.82;100.00;60434.72;5011065;28;20215;-70
2022/11/16 10:29:10;;;;;;;7.47;6.77;;;;;;;-148.82;100.00;60434.72;4986621;28;20866;-72
2022/11/16 10:31:51;;;;;;;7.43;6.73;;;;;;;-148.82;100.00;60434.72;5008121;28;20234;-70
2022/11/16 10:34:22;;;;;;;7.17;6.57;;;;;;;-148.82;100.00;60434.72;5006247;28;20207;-71
2022/11/16 10:36:55;;;;;;;7.47;6.87;;;;;;;-148.82;100.00;60434.72;4961348;28;20311;-71
2022/11/16 10:39:26;;;;;;;7.57;6.87;;;;;;;-148.82;100.00;60434.72;5006158;28;20393;-68
2022/11/16 10:41:55;;;;;;;6.90;6.30;;;;;;;-148.82;100.00;60434.72;5009515;28;20422;-71
2022/11/16 10:44:33;;;;;;;7.10;6.50;;;;;;;-148.82;100.00;60434.72;4975463;28;20416;-70
2022/11/16 10:47:03;;;;;;;7.20;6.60;;;;;;;-148.82;100.00;60434.72;5007056;28;20214;-68
2022/11/16 10:49:38;;;;;;;7.40;6.80;;;;;;;-148.82;100.00;60434.72;5006643;28;20207;-70
2022/11/16 10:52:08;;;;;;;7.23;6.60;;;;;;;-148.82;100.00;60434.72;4949330;28;20215;-69
2022/11/16 10:54:37;;;;;;;29.47;24.43;;;;;;;-148.82;100.00;60434.72;4982866;28;20412;-70
2022/11/16 10:57:12;;;;;;;7.43;6.83;;;;;;;-148.82;100.00;60434.72;5004502;28;20315;-70
2022/11/16 10:59:42;;;;;;;7.60;7.00;;;;;;;-148.82;100.00;60434.72;5004532;28;20207;-70
2022/11/16 11:02:35;;;;;;;5.80;5.37;;;;;;;-148.82;100.00;60434.72;4979177;28;20230;-70
2022/11/16 11:05:06;;;;;;;5.57;5.17;;;;;;;-148.82;100.00;60434.72;4988498;28;20955;-69
2022/11/16 11:07:38;;;;;;;5.90;5.40;;;;;;;-148.82;100.00;60434.72;4953416;28;20237;-69
2022/11/16 11:10:23;;;;;;;5.80;5.40;;;;;;;-148.82;100.00;60434.72;5008772;28;20219;-70
2022/11/16 11:13:21;;;;;;;4.77;4.47;;;;;;;-148.82;100.00;60434.72;5004824;28;20207;-69
2022/11/16 11:15:50;;;;;;;5.80;5.40;;;;;;;-148.82;100.00;60434.72;5003546;28;20447;-69
2022/11/16 11:18:26;;;;;;;5.37;4.97;;;;;;;-148.82;100.00;60434.72;4978773;28;20759;-69
2022/11/16 11:21:06;;;;;;;5.27;4.87;;;;;;;-148.82;100.00;60434.72;4952722;28;21478;-68
2022/11/16 11:23:47;;;;;;;5.87;5.47;;;;;;;-148.82;100.00;60434.72;5004725;28;20230;-70
2022/11/16 11:26:29;;;;;;;6.20;5.70;;;;;;;-148.82;100.00;60434.72;4948125;28;21089;-68
2022/11/16 11:29:10;;;;;;;6.23;5.73;;;;;;;-148.82;100.00;60434.72;4982667;28;20474;-69
2022/11/16 11:31:44;;;;;;;6.67;6.17;;;;;;;-148.82;100.00;60434.72;5011750;28;20400;-70
2022/11/16 11:34:17;;;;;;;5.90;5.50;;;;;;;-148.82;100.00;60434.72;4969170;28;20202;-69
2022/11/16 11:36:50;;;;;;;6.40;5.93;;;;;;;-148.82;100.00;60434.72;5011216;28;20211;-70
2022/11/16 11:39:43;;;;;;;6.17;5.67;;;;;;;-148.82;100.00;60434.72;4983392;28;20203;-72
2022/11/16 11:42:22;;;;;;;6.17;5.67;;;;;;;-148.82;100.00;60434.72;4941052;28;20408;-70
2022/11/16 11:44:56;;;;;;;6.47;5.97;;;;;;;-148.82;100.00;60434.72;5007721;28;20207;-70
2022/11/16 11:47:31;;;;;;;6.73;6.07;;;;;;;-148.82;100.00;60434.72;5010835;28;20204;-69
2022/11/16 11:50:21;;;;;;;6.40;6.00;;;;;;;-148.82;100.00;60434.72;4983026;28;20320;-69
2022/11/16 11:53:00;;;;;;;6.67;6.17;;;;;;;-148.82;100.00;60434.72;5009045;28;20222;-68
2022/11/16 11:55:30;;;;;;;6.23;5.83;;;;;;;-148.82;100.00;60434.72;4979914;28;20722;-71
2022/11/16 11:57:59;;;;;;;6.63;5.97;;;;;;;-148.82;100.00;60434.72;4955855;28;20424;-69
2022/11/16 12:00:27;;;;;;;7.57;6.97;;;;;;;-148.82;100.00;60434.72;5010132;28;20761;-70
2022/11/16 12:03:33;;;;;;;6.17;5.67;;;;;;;-148.82;100.00;60434.72;5007027;28;20754;-69
2022/11/16 12:06:08;;;;;;;7.10;6.50;;;;;;;-148.82;100.00;60434.72;4979573;28;20207;-70
2022/11/16 12:08:56;;;;;;;7.57;6.93;;;;;;;-148.82;100.00;60434.72;5009543;28;20207;-70